sensor_id;sensor_type;location;lat;lon;timestamp;pressure;altitude;pressure_sealevel;temperature;humidity
20017;BME280;10169;42.664;23.610;2023-07-29T00:00:32;95160.94;;;14.61;100.00
20017;BME280;10169;42.664;23.610;2023-07-29T00:02:32;95148.91;;;14.68;100.00
20017;BME280;10169;42.664;23.610;2023-07-29T00:04:33;95148.34;;;14.71;100.00
20017;BME280;10169;42.664;23.610;2023-07-29T00:06:33;95145.94;;;14.80;100.00
20017;BME280;10169;42.664;23.610;2023-07-29T00:08:33;95150.22;;;14.86;100.00
20017;BME280;10169;42.664;23.610;2023-07-29T00:10:35;95152.34;;;14.89;100.00
20017;BME280;10169;42.664;23.610;2023-07-29T00:12:36;95161.19;;;14.84;100.00
20017;BME280;10169;42.664;23.610;2023-07-29T00:14:36;95162.28;;;14.88;100.00
20017;BME280;10169;42.664;23.610;2023-07-29T00:16:36;95157.72;;;14.84;100.00
20017;BME280;10169;42.664;23.610;2023-07-29T00:18:37;95158.25;;;14.81;100.00
20017;BME280;10169;42.664;23.610;2023-07-29T00:20:37;95165.47;;;14.80;100.00
20017;BME280;10169;42.664;23.610;2023-07-29T00:22:37;95160.41;;;14.79;100.00
20017;BME280;10169;42.664;23.610;2023-07-29T00:24:39;95170.03;;;14.75;100.00
20017;BME280;10169;42.664;23.610;2023-07-29T00:26:39;95168.16;;;14.70;100.00
20017;BME280;10169;42.664;23.610;2023-07-29T00:28:39;95163.59;;;14.71;100.00
20017;BME280;10169;42.664;23.610;2023-07-29T00:30:40;95162.78;;;14.75;100.00
20017;BME280;10169;42.664;23.610;2023-07-29T00:32:40;95160.94;;;14.76;100.00
20017;BME280;10169;42.664;23.610;2023-07-29T00:34:40;95160.94;;;14.76;100.00
20017;BME280;10169;42.664;23.610;2023-07-29T00:36:41;95157.44;;;14.80;100.00
20017;BME280;10169;42.664;23.610;2023-07-29T00:38:41;95158.25;;;14.81;100.00
20017;BME280;10169;42.664;23.610;2023-07-29T00:40:41;95159.59;;;14.83;100.00
20017;BME280;10169;42.664;23.610;2023-07-29T00:42:42;95163.59;;;14.81;100.00
20017;BME280;10169;42.664;23.610;2023-07-29T00:44:42;95161.47;;;14.83;100.00
20017;BME280;10169;42.664;23.610;2023-07-29T00:46:43;95159.06;;;14.81;100.00
20017;BME280;10169;42.664;23.610;2023-07-29T00:48:45;95157.72;;;14.69;100.00
20017;BME280;10169;42.664;23.610;2023-07-29T00:50:46;95153.16;;;14.64;100.00
20017;BME280;10169;42.664;23.610;2023-07-29T00:52:46;95150.25;;;14.61;100.00
20017;BME280;10169;42.664;23.610;2023-07-29T00:54:46;95156.13;;;14.63;100.00
20017;BME280;10169;42.664;23.610;2023-07-29T00:56:47;95156.66;;;14.60;100.00
20017;BME280;10169;42.664;23.610;2023-07-29T00:58:47;95154.78;;;14.70;100.00
20017;BME280;10169;42.664;23.610;2023-07-29T01:00:47;95159.88;;;14.72;100.00
20017;BME280;10169;42.664;23.610;2023-07-29T01:02:48;95147.81;;;14.69;100.00
20017;BME280;10169;42.664;23.610;2023-07-29T01:04:51;95150.22;;;14.71;100.00
20017;BME280;10169;42.664;23.610;2023-07-29T01:09:02;95144.88;;;14.76;100.00
20017;BME280;10169;42.664;23.610;2023-07-29T01:11:06;95148.34;;;14.71;100.00
20017;BME280;10169;42.664;23.610;2023-07-29T01:17:35;95142.50;;;14.39;100.00
20017;BME280;10169;42.664;23.610;2023-07-29T01:19:43;95147.56;;;14.40;100.00
20017;BME280;10169;42.664;23.610;2023-07-29T01:21:48;95149.97;;;14.32;100.00
20017;BME280;10169;42.664;23.610;2023-07-29T01:23:52;95150.75;;;14.37;100.00
20017;BME280;10169;42.664;23.610;2023-07-29T01:25:52;95145.66;;;14.31;100.00
20017;BME280;10169;42.664;23.610;2023-07-29T01:27:52;95157.66;;;14.28;100.00
20017;BME280;10169;42.664;23.610;2023-07-29T01:29:53;95152.06;;;14.25;100.00
20017;BME280;10169;42.664;23.610;2023-07-29T01:31:54;95161.94;;;14.14;100.00
20017;BME280;10169;42.664;23.610;2023-07-29T01:33:57;95160.06;;;14.10;100.00
20017;BME280;10169;42.664;23.610;2023-07-29T01:36:11;95166.19;;;14.10;100.00
20017;BME280;10169;42.664;23.610;2023-07-29T01:38:18;95156.31;;;14.11;100.00
20017;BME280;10169;42.664;23.610;2023-07-29T01:40:22;95153.06;;;14.04;100.00
20017;BME280;10169;42.664;23.610;2023-07-29T01:42:23;95158.44;;;14.04;100.00
20017;BME280;10169;42.664;23.610;2023-07-29T01:44:24;95158.19;;;14.05;100.00
20017;BME280;10169;42.664;23.610;2023-07-29T01:46:25;95149.06;;;14.01;100.00
20017;BME280;10169;42.664;23.610;2023-07-29T01:48:26;95158.69;;;14.02;100.00
20017;BME280;10169;42.664;23.610;2023-07-29T01:50:27;95152.25;;;13.93;100.00
20017;BME280;10169;42.664;23.610;2023-07-29T01:52:27;95142.56;;;13.72;100.00
20017;BME280;10169;42.664;23.610;2023-07-29T01:54:28;95147.06;;;13.56;100.00
20017;BME280;10169;42.664;23.610;2023-07-29T01:56:28;95133.16;;;13.44;100.00
20017;BME280;10169;42.664;23.610;2023-07-29T01:58:28;95159.06;;;13.49;100.00
20017;BME280;10169;42.664;23.610;2023-07-29T02:00:29;95157.94;;;13.40;100.00
20017;BME280;10169;42.664;23.610;2023-07-29T02:02:29;95161.97;;;13.47;100.00
20017;BME280;10169;42.664;23.610;2023-07-29T02:04:29;95156.97;;;13.56;100.00
20017;BME280;10169;42.664;23.610;2023-07-29T02:06:29;95168.44;;;13.51;100.00
20017;BME280;10169;42.664;23.610;2023-07-29T02:08:30;95174.00;;;13.50;100.00
20017;BME280;10169;42.664;23.610;2023-07-29T02:10:30;95173.22;;;13.54;100.00
20017;BME280;10169;42.664;23.610;2023-07-29T02:12:30;95174.63;;;13.67;100.00
20017;BME280;10169;42.664;23.610;2023-07-29T02:14:31;95172.00;;;13.82;100.00
20017;BME280;10169;42.664;23.610;2023-07-29T02:16:31;95173.34;;;13.85;100.00
20017;BME280;10169;42.664;23.610;2023-07-29T02:18:33;95169.06;;;13.78;100.00
20017;BME280;10169;42.664;23.610;2023-07-29T02:20:33;95177.06;;;13.78;100.00
20017;BME280;10169;42.664;23.610;2023-07-29T02:22:33;95176.25;;;13.73;100.00
20017;BME280;10169;42.664;23.610;2023-07-29T02:24:34;95170.59;;;13.64;100.00
20017;BME280;10169;42.664;23.610;2023-07-29T02:26:34;95179.41;;;13.60;100.00
20017;BME280;10169;42.664;23.610;2023-07-29T02:28:35;95175.91;;;13.59;100.00
20017;BME280;10169;42.664;23.610;2023-07-29T02:30:35;95175.41;;;13.62;100.00
20017;BME280;10169;42.664;23.610;2023-07-29T02:32:36;95172.38;;;13.44;100.00
20017;BME280;10169;42.664;23.610;2023-07-29T02:34:36;95176.34;;;13.36;100.00
20017;BME280;10169;42.664;23.610;2023-07-29T02:36:36;95183.03;;;13.34;100.00
20017;BME280;10169;42.664;23.610;2023-07-29T02:38:37;95185.84;;;13.17;100.00
20017;BME280;10169;42.664;23.610;2023-07-29T02:40:37;95189.03;;;13.09;100.00
20017;BME280;10169;42.664;23.610;2023-07-29T02:42:38;95184.41;;;13.04;100.00
20017;BME280;10169;42.664;23.610;2023-07-29T02:44:39;95192.22;;;13.11;100.00
20017;BME280;10169;42.664;23.610;2023-07-29T02:46:39;95183.38;;;13.05;100.00
20017;BME280;10169;42.664;23.610;2023-07-29T02:48:40;95185.53;;;13.08;100.00
20017;BME280;10169;42.664;23.610;2023-07-29T02:50:40;95177.78;;;13.07;100.00
20017;BME280;10169;42.664;23.610;2023-07-29T02:52:40;95176.47;;;13.09;100.00
20017;BME280;10169;42.664;23.610;2023-07-29T02:54:40;95184.00;;;13.18;100.00
20017;BME280;10169;42.664;23.610;2023-07-29T02:56:41;95183.81;;;13.29;100.00
20017;BME280;10169;42.664;23.610;2023-07-29T02:58:41;95189.38;;;13.28;100.00
20017;BME280;10169;42.664;23.610;2023-07-29T03:00:42;95189.59;;;13.21;100.00
20017;BME280;10169;42.664;23.610;2023-07-29T03:02:43;95183.75;;;13.24;100.00
20017;BME280;10169;42.664;23.610;2023-07-29T03:04:43;95187.00;;;13.31;100.00
20017;BME280;10169;42.664;23.610;2023-07-29T03:06:43;95190.44;;;13.27;100.00
20017;BME280;10169;42.664;23.610;2023-07-29T03:08:44;95187.22;;;13.20;100.00
20017;BME280;10169;42.664;23.610;2023-07-29T03:10:44;95181.56;;;13.11;100.00
20017;BME280;10169;42.664;23.610;2023-07-29T03:12:44;95189.19;;;13.02;100.00
20017;BME280;10169;42.664;23.610;2023-07-29T03:14:47;95190.00;;;13.03;100.00
20017;BME280;10169;42.664;23.610;2023-07-29T03:16:47;95204.31;;;12.92;100.00
20017;BME280;10169;42.664;23.610;2023-07-29T03:18:48;95198.19;;;12.91;100.00
20017;BME280;10169;42.664;23.610;2023-07-29T03:20:49;95200.06;;;12.96;100.00
20017;BME280;10169;42.664;23.610;2023-07-29T03:22:49;95198.53;;;13.00;100.00
20017;BME280;10169;42.664;23.610;2023-07-29T03:24:49;95196.91;;;12.99;100.00
20017;BME280;10169;42.664;23.610;2023-07-29T03:26:49;95199.31;;;13.00;100.00
20017;BME280;10169;42.664;23.610;2023-07-29T03:28:50;95204.91;;;12.99;100.00
20017;BME280;10169;42.664;23.610;2023-07-29T03:30:50;95202.19;;;12.94;100.00
20017;BME280;10169;42.664;23.610;2023-07-29T03:32:50;95208.63;;;12.93;100.00
20017;BME280;10169;42.664;23.610;2023-07-29T03:34:51;95215.84;;;13.02;100.00
20017;BME280;10169;42.664;23.610;2023-07-29T03:36:51;95212.66;;;13.00;100.00
20017;BME280;10169;42.664;23.610;2023-07-29T03:38:51;95211.94;;;13.10;100.00
20017;BME280;10169;42.664;23.610;2023-07-29T03:40:52;95207.97;;;13.13;100.00
20017;BME280;10169;42.664;23.610;2023-07-29T03:42:53;95207.47;;;13.21;100.00
20017;BME280;10169;42.664;23.610;2023-07-29T03:44:53;95205.94;;;13.30;100.00
20017;BME280;10169;42.664;23.610;2023-07-29T03:46:54;95205.69;;;13.31;100.00
20017;BME280;10169;42.664;23.610;2023-07-29T03:48:54;95191.03;;;13.34;100.00
20017;BME280;10169;42.664;23.610;2023-07-29T03:50:54;95197.97;;;13.35;100.00
20017;BME280;10169;42.664;23.610;2023-07-29T03:52:55;95206.78;;;13.35;100.00
20017;BME280;10169;42.664;23.610;2023-07-29T03:54:55;95203.25;;;13.30;100.00
20017;BME280;10169;42.664;23.610;2023-07-29T03:56:55;95200.34;;;13.36;100.00
20017;BME280;10169;42.664;23.610;2023-07-29T03:59:03;95202.22;;;13.31;100.00
20017;BME280;10169;42.664;23.610;2023-07-29T04:01:03;95203.03;;;13.31;100.00
20017;BME280;10169;42.664;23.610;2023-07-29T04:03:04;95209.22;;;13.42;100.00
20017;BME280;10169;42.664;23.610;2023-07-29T04:05:05;95206.25;;;13.38;100.00
20017;BME280;10169;42.664;23.610;2023-07-29T04:07:06;95212.69;;;13.47;100.00
20017;BME280;10169;42.664;23.610;2023-07-29T04:09:06;95207.34;;;13.42;100.00
20017;BME280;10169;42.664;23.610;2023-07-29T04:11:08;95209.25;;;13.52;100.00
20017;BME280;10169;42.664;23.610;2023-07-29T04:13:08;95212.50;;;13.54;100.00
20017;BME280;10169;42.664;23.610;2023-07-29T04:15:08;95208.53;;;13.66;100.00
20017;BME280;10169;42.664;23.610;2023-07-29T04:17:09;95205.94;;;13.87;100.00
20017;BME280;10169;42.664;23.610;2023-07-29T04:19:09;95208.66;;;14.02;100.00
20017;BME280;10169;42.664;23.610;2023-07-29T04:21:09;95215.63;;;14.13;100.00
20017;BME280;10169;42.664;23.610;2023-07-29T04:23:10;95207.16;;;14.31;100.00
20017;BME280;10169;42.664;23.610;2023-07-29T04:25:10;95210.16;;;14.55;100.00
20017;BME280;10169;42.664;23.610;2023-07-29T04:27:10;95201.31;;;14.64;100.00
20017;BME280;10169;42.664;23.610;2023-07-29T04:29:11;95200.53;;;14.79;100.00
20017;BME280;10169;42.664;23.610;2023-07-29T04:31:11;95200.53;;;14.74;100.00
20017;BME280;10169;42.664;23.610;2023-07-29T04:33:11;95198.91;;;14.68;100.00
20017;BME280;10169;42.664;23.610;2023-07-29T04:35:12;95195.44;;;14.77;100.00
20017;BME280;10169;42.664;23.610;2023-07-29T04:37:12;95195.69;;;14.96;100.00
20017;BME280;10169;42.664;23.610;2023-07-29T04:39:12;95203.16;;;15.19;100.00
20017;BME280;10169;42.664;23.610;2023-07-29T04:41:13;95193.47;;;15.38;100.00
20017;BME280;10169;42.664;23.610;2023-07-29T04:43:13;95198.00;;;15.63;100.00
20017;BME280;10169;42.664;23.610;2023-07-29T04:45:13;95205.41;;;15.86;100.00
20017;BME280;10169;42.664;23.610;2023-07-29T04:47:14;95194.91;;;16.00;100.00
20017;BME280;10169;42.664;23.610;2023-07-29T04:49:14;95198.34;;;16.10;100.00
20017;BME280;10169;42.664;23.610;2023-07-29T04:51:15;95198.63;;;16.09;100.00
20017;BME280;10169;42.664;23.610;2023-07-29T04:53:15;95199.66;;;16.13;100.00
20017;BME280;10169;42.664;23.610;2023-07-29T04:55:15;95198.50;;;16.29;100.00
20017;BME280;10169;42.664;23.610;2023-07-29T04:57:16;95209.97;;;16.39;100.00
20017;BME280;10169;42.664;23.610;2023-07-29T04:59:16;95210.47;;;16.51;100.00
20017;BME280;10169;42.664;23.610;2023-07-29T05:01:17;95211.41;;;16.71;100.00
20017;BME280;10169;42.664;23.610;2023-07-29T05:03:17;95213.00;;;16.72;100.00
20017;BME280;10169;42.664;23.610;2023-07-29T05:05:17;95220.44;;;16.80;100.00
20017;BME280;10169;42.664;23.610;2023-07-29T05:07:18;95212.25;;;17.00;100.00
20017;BME280;10169;42.664;23.610;2023-07-29T05:09:18;95206.28;;;17.08;100.00
20017;BME280;10169;42.664;23.610;2023-07-29T05:11:20;95216.91;;;17.47;100.00
20017;BME280;10169;42.664;23.610;2023-07-29T05:13:20;95218.34;;;17.68;100.00
20017;BME280;10169;42.664;23.610;2023-07-29T05:15:20;95212.91;;;17.73;100.00
20017;BME280;10169;42.664;23.610;2023-07-29T05:17:21;95218.44;;;18.05;100.00
20017;BME280;10169;42.664;23.610;2023-07-29T05:19:21;95214.47;;;18.21;100.00
20017;BME280;10169;42.664;23.610;2023-07-29T05:21:22;95213.25;;;18.32;100.00
20017;BME280;10169;42.664;23.610;2023-07-29T05:23:22;95211.03;;;18.58;100.00
20017;BME280;10169;42.664;23.610;2023-07-29T05:25:23;95203.75;;;18.77;100.00
20017;BME280;10169;42.664;23.610;2023-07-29T05:27:23;95219.16;;;18.90;100.00
20017;BME280;10169;42.664;23.610;2023-07-29T05:29:24;95210.78;;;19.24;100.00
20017;BME280;10169;42.664;23.610;2023-07-29T05:31:24;95212.00;;;19.50;100.00
20017;BME280;10169;42.664;23.610;2023-07-29T05:33:24;95204.91;;;19.54;100.00
20017;BME280;10169;42.664;23.610;2023-07-29T05:35:24;95210.59;;;19.93;100.00
20017;BME280;10169;42.664;23.610;2023-07-29T05:37:25;95203.81;;;19.82;100.00
20017;BME280;10169;42.664;23.610;2023-07-29T05:39:25;95210.91;;;20.05;100.00
20017;BME280;10169;42.664;23.610;2023-07-29T05:41:25;95209.03;;;20.06;100.00
20017;BME280;10169;42.664;23.610;2023-07-29T05:43:28;95213.19;;;20.12;100.00
20017;BME280;10169;42.664;23.610;2023-07-29T05:45:28;95216.81;;;20.21;100.00
20017;BME280;10169;42.664;23.610;2023-07-29T05:47:30;95219.59;;;20.30;100.00
20017;BME280;10169;42.664;23.610;2023-07-29T05:49:31;95215.25;;;20.56;100.00
20017;BME280;10169;42.664;23.610;2023-07-29T05:51:31;95219.06;;;20.55;100.00
20017;BME280;10169;42.664;23.610;2023-07-29T05:53:34;95216.16;;;20.51;100.00
20017;BME280;10169;42.664;23.610;2023-07-29T05:55:35;95215.88;;;20.53;100.00
20017;BME280;10169;42.664;23.610;2023-07-29T05:57:35;95229.91;;;20.77;100.00
20017;BME280;10169;42.664;23.610;2023-07-29T05:59:35;95233.69;;;20.76;100.00
20017;BME280;10169;42.664;23.610;2023-07-29T06:01:36;95225.44;;;20.94;100.00
20017;BME280;10169;42.664;23.610;2023-07-29T06:03:36;95217.13;;;20.69;100.00
20017;BME280;10169;42.664;23.610;2023-07-29T06:05:36;95228.22;;;21.03;100.00
20017;BME280;10169;42.664;23.610;2023-07-29T06:07:36;95230.53;;;20.96;100.00
20017;BME280;10169;42.664;23.610;2023-07-29T06:09:37;95227.81;;;21.10;100.00
20017;BME280;10169;42.664;23.610;2023-07-29T06:11:38;95221.91;;;21.52;100.00
20017;BME280;10169;42.664;23.610;2023-07-29T06:13:38;95219.06;;;21.57;100.00
20017;BME280;10169;42.664;23.610;2023-07-29T06:15:38;95219.09;;;21.65;100.00
20017;BME280;10169;42.664;23.610;2023-07-29T06:17:39;95217.97;;;21.89;99.48
20017;BME280;10169;42.664;23.610;2023-07-29T06:19:40;95216.44;;;22.05;97.89
20017;BME280;10169;42.664;23.610;2023-07-29T06:21:41;95208.78;;;22.07;100.00
20017;BME280;10169;42.664;23.610;2023-07-29T06:23:42;95204.47;;;22.06;94.99
20017;BME280;10169;42.664;23.610;2023-07-29T06:25:42;95213.94;;;22.17;87.82
20017;BME280;10169;42.664;23.610;2023-07-29T06:27:43;95210.00;;;22.49;92.40
20017;BME280;10169;42.664;23.610;2023-07-29T06:29:43;95210.00;;;22.40;87.85
20017;BME280;10169;42.664;23.610;2023-07-29T06:31:43;95209.28;;;22.82;90.38
20017;BME280;10169;42.664;23.610;2023-07-29T06:33:43;95210.69;;;22.80;84.33
20017;BME280;10169;42.664;23.610;2023-07-29T06:35:44;95205.94;;;22.77;86.56
20017;BME280;10169;42.664;23.610;2023-07-29T06:37:44;95208.00;;;22.80;86.54
20017;BME280;10169;42.664;23.610;2023-07-29T06:39:44;95206.09;;;23.06;78.29
20017;BME280;10169;42.664;23.610;2023-07-29T06:41:45;95203.22;;;23.11;75.98
20017;BME280;10169;42.664;23.610;2023-07-29T06:43:45;95206.06;;;23.32;75.62
20017;BME280;10169;42.664;23.610;2023-07-29T06:45:45;95202.25;;;23.24;78.70
20017;BME280;10169;42.664;23.610;2023-07-29T06:47:46;95191.38;;;23.50;79.81
20017;BME280;10169;42.664;23.610;2023-07-29T06:49:46;95194.63;;;23.90;75.13
20017;BME280;10169;42.664;23.610;2023-07-29T06:51:47;95199.78;;;24.03;74.82
20017;BME280;10169;42.664;23.610;2023-07-29T06:53:47;95180.53;;;23.96;68.35
20017;BME280;10169;42.664;23.610;2023-07-29T06:55:47;95191.59;;;23.83;76.95
20017;BME280;10169;42.664;23.610;2023-07-29T06:57:48;95181.72;;;23.69;68.82
20017;BME280;10169;42.664;23.610;2023-07-29T06:59:48;95184.56;;;23.82;69.54
20017;BME280;10169;42.664;23.610;2023-07-29T07:01:48;95184.75;;;24.14;69.80
20017;BME280;10169;42.664;23.610;2023-07-29T07:03:49;95176.25;;;24.24;71.98
20017;BME280;10169;42.664;23.610;2023-07-29T07:05:49;95187.22;;;24.36;67.68
20017;BME280;10169;42.664;23.610;2023-07-29T07:07:50;95177.56;;;24.47;74.61
20017;BME280;10169;42.664;23.610;2023-07-29T07:09:50;95179.72;;;24.83;76.88
20017;BME280;10169;42.664;23.610;2023-07-29T07:11:50;95172.22;;;24.80;63.74
20017;BME280;10169;42.664;23.610;2023-07-29T07:13:50;95170.97;;;24.78;62.55
20017;BME280;10169;42.664;23.610;2023-07-29T07:15:53;95173.06;;;24.72;64.11
20017;BME280;10169;42.664;23.610;2023-07-29T07:17:54;95177.47;;;25.06;64.80
20017;BME280;10169;42.664;23.610;2023-07-29T07:19:54;95172.97;;;25.22;59.37
20017;BME280;10169;42.664;23.610;2023-07-29T07:21:54;95176.56;;;25.14;67.43
20017;BME280;10169;42.664;23.610;2023-07-29T07:23:54;95172.41;;;25.49;65.45
20017;BME280;10169;42.664;23.610;2023-07-29T07:25:55;95178.78;;;25.53;61.29
20017;BME280;10169;42.664;23.610;2023-07-29T07:27:55;95178.94;;;25.81;58.80
20017;BME280;10169;42.664;23.610;2023-07-29T07:29:55;95177.94;;;25.98;63.17
20017;BME280;10169;42.664;23.610;2023-07-29T07:31:56;95163.88;;;25.96;58.60
20017;BME280;10169;42.664;23.610;2023-07-29T07:33:56;95183.44;;;26.34;58.76
20017;BME280;10169;42.664;23.610;2023-07-29T07:35:56;95184.88;;;26.19;53.48
20017;BME280;10169;42.664;23.610;2023-07-29T07:37:57;95182.69;;;26.01;52.41
20017;BME280;10169;42.664;23.610;2023-07-29T07:39:58;95180.53;;;25.82;55.45
20017;BME280;10169;42.664;23.610;2023-07-29T07:41:59;95180.44;;;25.90;53.01
20017;BME280;10169;42.664;23.610;2023-07-29T07:43:59;95182.56;;;25.73;54.36
20017;BME280;10169;42.664;23.610;2023-07-29T07:46:00;95186.03;;;26.30;56.92
20017;BME280;10169;42.664;23.610;2023-07-29T07:48:00;95179.06;;;26.57;58.74
20017;BME280;10169;42.664;23.610;2023-07-29T07:50:02;95182.63;;;26.97;52.01
20017;BME280;10169;42.664;23.610;2023-07-29T07:52:03;95174.00;;;26.95;50.98
20017;BME280;10169;42.664;23.610;2023-07-29T07:54:03;95179.72;;;27.18;51.30
20017;BME280;10169;42.664;23.610;2023-07-29T07:56:03;95177.44;;;27.20;50.10
20017;BME280;10169;42.664;23.610;2023-07-29T07:58:03;95179.94;;;27.25;49.05
20017;BME280;10169;42.664;23.610;2023-07-29T08:00:04;95184.22;;;27.38;48.92
20017;BME280;10169;42.664;23.610;2023-07-29T08:02:05;95173.50;;;27.33;49.08
20017;BME280;10169;42.664;23.610;2023-07-29T08:04:05;95177.66;;;27.55;48.67
20017;BME280;10169;42.664;23.610;2023-07-29T08:06:05;95181.69;;;27.33;49.90
20017;BME280;10169;42.664;23.610;2023-07-29T08:08:06;95169.09;;;27.41;49.26
20017;BME280;10169;42.664;23.610;2023-07-29T08:10:06;95178.97;;;27.45;47.90
20017;BME280;10169;42.664;23.610;2023-07-29T08:12:07;95166.78;;;27.86;46.18
20017;BME280;10169;42.664;23.610;2023-07-29T08:14:07;95169.13;;;27.87;45.27
20017;BME280;10169;42.664;23.610;2023-07-29T08:16:07;95168.34;;;28.34;46.97
20017;BME280;10169;42.664;23.610;2023-07-29T08:18:07;95174.16;;;28.48;44.36
20017;BME280;10169;42.664;23.610;2023-07-29T08:20:08;95175.66;;;28.45;45.23
20017;BME280;10169;42.664;23.610;2023-07-29T08:22:09;95176.19;;;28.86;43.46
20017;BME280;10169;42.664;23.610;2023-07-29T08:24:09;95169.91;;;28.66;43.74
20017;BME280;10169;42.664;23.610;2023-07-29T08:26:09;95171.25;;;28.41;44.44
20017;BME280;10169;42.664;23.610;2023-07-29T08:28:10;95170.53;;;28.59;43.34
20017;BME280;10169;42.664;23.610;2023-07-29T08:30:11;95169.97;;;28.69;42.47
20017;BME280;10169;42.664;23.610;2023-07-29T08:32:11;95168.06;;;28.54;41.33
20017;BME280;10169;42.664;23.610;2023-07-29T08:34:12;95158.34;;;28.22;41.97
20017;BME280;10169;42.664;23.610;2023-07-29T08:36:12;95159.72;;;28.16;42.10
20017;BME280;10169;42.664;23.610;2023-07-29T08:38:12;95158.41;;;28.26;40.75
20017;BME280;10169;42.664;23.610;2023-07-29T08:40:12;95157.31;;;28.46;41.96
20017;BME280;10169;42.664;23.610;2023-07-29T08:42:13;95155.38;;;28.46;41.18
20017;BME280;10169;42.664;23.610;2023-07-29T08:44:23;95152.97;;;28.60;39.91
20017;BME280;10169;42.664;23.610;2023-07-29T08:46:23;95156.13;;;28.97;42.04
20017;BME280;10169;42.664;23.610;2023-07-29T08:48:29;95149.41;;;28.76;40.36
20017;BME280;10169;42.664;23.610;2023-07-29T08:50:32;95157.38;;;28.49;39.98
20017;BME280;10169;42.664;23.610;2023-07-29T08:52:32;95157.78;;;28.83;41.94
20017;BME280;10169;42.664;23.610;2023-07-29T08:54:34;95153.44;;;28.82;40.35
20017;BME280;10169;42.664;23.610;2023-07-29T08:56:35;95143.53;;;28.93;40.59
20017;BME280;10169;42.664;23.610;2023-07-29T08:58:35;95145.81;;;29.10;38.93
20017;BME280;10169;42.664;23.610;2023-07-29T09:00:36;95141.09;;;29.07;39.52
20017;BME280;10169;42.664;23.610;2023-07-29T09:02:37;95141.94;;;29.30;41.15
20017;BME280;10169;42.664;23.610;2023-07-29T09:04:37;95139.34;;;29.56;42.97
20017;BME280;10169;42.664;23.610;2023-07-29T09:06:38;95132.16;;;29.29;40.30
20017;BME280;10169;42.664;23.610;2023-07-29T09:08:39;95131.97;;;29.60;40.75
20017;BME280;10169;42.664;23.610;2023-07-29T09:10:39;95124.56;;;30.06;41.86
20017;BME280;10169;42.664;23.610;2023-07-29T09:12:40;95129.78;;;30.37;41.03
20017;BME280;10169;42.664;23.610;2023-07-29T09:14:40;95123.91;;;30.65;40.83
20017;BME280;10169;42.664;23.610;2023-07-29T09:16:40;95114.06;;;30.34;38.78
20017;BME280;10169;42.664;23.610;2023-07-29T09:18:41;95123.41;;;30.07;38.62
20017;BME280;10169;42.664;23.610;2023-07-29T09:20:41;95120.03;;;29.72;38.70
20017;BME280;10169;42.664;23.610;2023-07-29T09:22:43;95124.72;;;29.49;40.24
20017;BME280;10169;42.664;23.610;2023-07-29T09:24:44;95126.84;;;29.17;41.25
20017;BME280;10169;42.664;23.610;2023-07-29T09:26:48;95130.00;;;29.38;40.56
20017;BME280;10169;42.664;23.610;2023-07-29T09:28:51;95126.59;;;29.45;42.18
20017;BME280;10169;42.664;23.610;2023-07-29T09:30:52;95109.63;;;29.58;40.71
20017;BME280;10169;42.664;23.610;2023-07-29T09:32:55;95111.84;;;29.94;40.20
20017;BME280;10169;42.664;23.610;2023-07-29T09:34:56;95114.59;;;29.94;41.01
20017;BME280;10169;42.664;23.610;2023-07-29T09:36:56;95108.06;;;29.80;41.18
20017;BME280;10169;42.664;23.610;2023-07-29T09:38:57;95113.34;;;29.69;41.37
20017;BME280;10169;42.664;23.610;2023-07-29T09:40:57;95105.81;;;30.08;41.38
20017;BME280;10169;42.664;23.610;2023-07-29T09:42:58;95110.38;;;30.27;42.70
20017;BME280;10169;42.664;23.610;2023-07-29T09:44:58;95104.72;;;29.90;41.03
20017;BME280;10169;42.664;23.610;2023-07-29T09:46:58;95099.56;;;29.85;41.36
20017;BME280;10169;42.664;23.610;2023-07-29T09:48:59;95102.25;;;29.81;39.96
20017;BME280;10169;42.664;23.610;2023-07-29T09:50:59;95095.75;;;29.70;40.36
20017;BME280;10169;42.664;23.610;2023-07-29T09:52:59;95098.16;;;29.53;40.55
20017;BME280;10169;42.664;23.610;2023-07-29T09:55:00;95101.44;;;29.81;42.06
20017;BME280;10169;42.664;23.610;2023-07-29T09:57:00;95098.69;;;30.03;40.22
20017;BME280;10169;42.664;23.610;2023-07-29T09:59:00;95093.50;;;29.98;40.24
20017;BME280;10169;42.664;23.610;2023-07-29T10:01:01;95093.84;;;30.20;41.11
20017;BME280;10169;42.664;23.610;2023-07-29T10:03:01;95093.47;;;30.21;40.13
20017;BME280;10169;42.664;23.610;2023-07-29T10:05:02;95090.66;;;30.18;40.06
20017;BME280;10169;42.664;23.610;2023-07-29T10:07:03;95087.34;;;29.60;40.08
20017;BME280;10169;42.664;23.610;2023-07-29T10:09:05;95083.03;;;29.59;39.84
20017;BME280;10169;42.664;23.610;2023-07-29T10:11:05;95083.00;;;29.78;42.29
20017;BME280;10169;42.664;23.610;2023-07-29T10:13:06;95080.22;;;30.00;40.82
20017;BME280;10169;42.664;23.610;2023-07-29T10:15:07;95075.84;;;29.96;41.57
20017;BME280;10169;42.664;23.610;2023-07-29T10:17:08;95082.44;;;29.91;40.30
20017;BME280;10169;42.664;23.610;2023-07-29T10:19:08;95079.28;;;29.89;39.95
20017;BME280;10169;42.664;23.610;2023-07-29T10:21:09;95085.44;;;30.32;39.96
20017;BME280;10169;42.664;23.610;2023-07-29T10:23:11;95079.47;;;30.52;38.70
20017;BME280;10169;42.664;23.610;2023-07-29T10:25:14;95081.63;;;30.69;38.32
20017;BME280;10169;42.664;23.610;2023-07-29T10:27:15;95074.91;;;30.63;37.62
20017;BME280;10169;42.664;23.610;2023-07-29T10:29:19;95075.38;;;30.39;37.51
20017;BME280;10169;42.664;23.610;2023-07-29T10:31:19;95068.19;;;30.61;37.46